Blaine, Washington
Current Conditions -  °F | °C
As of 1:53 PM on Monday 20 Oct 2014 (Local Time) from KBLI Reporting Station
Scattered Clouds Scattered Clouds  
Wind Chill: 60°   Ceiling: Unl
Heat Index: 60°   Visibility: 10mi
Dew Point: 53°   Wind: 6mph
Humidity: 78%   Direction: 180°S
Pressure: 29.71"   Gusts: NA
Location:  48.99°N, 122.74°W
Report Text: KBLI 202053Z 18005KT 10SM FEW037 SCT070 16/12 A2971 RMK AO2 SLP068 60002 T01560117 58001
Loading
Personal Weather Stations






























Interactive Weather Map
Tropical Storm Tracking
New forecast layout! Learn more

10-Day Weather Forecast

Advertisements
Track Severe Weather on mobile